sensor_id;sensor_type;location;lat;lon;timestamp;pressure;altitude;pressure_sealevel;temperature;humidity
60583;BME280;46415;47.536;19.066;2023-04-15T00:01:44;99401.53;;;5.36;100.00
60583;BME280;46415;47.536;19.066;2023-04-15T00:04:47;99402.03;;;5.44;100.00
60583;BME280;46415;47.536;19.066;2023-04-15T00:07:50;99399.75;;;5.37;100.00
60583;BME280;46415;47.536;19.066;2023-04-15T00:10:53;99408.50;;;5.32;100.00
60583;BME280;46415;47.536;19.066;2023-04-15T00:13:56;99401.75;;;5.30;100.00
60583;BME280;46415;47.536;19.066;2023-04-15T00:17:00;99408.44;;;5.34;100.00
60583;BME280;46415;47.536;19.066;2023-04-15T00:20:03;99403.25;;;5.36;100.00
60583;BME280;46415;47.536;19.066;2023-04-15T00:23:08;99409.06;;;5.41;100.00
60583;BME280;46415;47.536;19.066;2023-04-15T00:26:10;99405.59;;;5.42;100.00
60583;BME280;46415;47.536;19.066;2023-04-15T00:29:15;99408.22;;;5.40;100.00
60583;BME280;46415;47.536;19.066;2023-04-15T00:32:18;99406.53;;;5.39;100.00
60583;BME280;46415;47.536;19.066;2023-04-15T00:35:21;99400.56;;;5.39;100.00
60583;BME280;46415;47.536;19.066;2023-04-15T00:38:25;99410.12;;;5.35;100.00
60583;BME280;46415;47.536;19.066;2023-04-15T00:41:28;99402.19;;;5.41;100.00
60583;BME280;46415;47.536;19.066;2023-04-15T00:44:31;99406.47;;;5.41;100.00
60583;BME280;46415;47.536;19.066;2023-04-15T00:47:35;99404.00;;;5.38;100.00
60583;BME280;46415;47.536;19.066;2023-04-15T00:50:43;99399.66;;;5.40;100.00
60583;BME280;46415;47.536;19.066;2023-04-15T00:53:46;99403.72;;;5.45;100.00
60583;BME280;46415;47.536;19.066;2023-04-15T00:56:48;99397.88;;;5.42;100.00
60583;BME280;46415;47.536;19.066;2023-04-15T00:59:53;99390.03;;;5.45;100.00
60583;BME280;46415;47.536;19.066;2023-04-15T01:02:57;99393.00;;;5.34;100.00
60583;BME280;46415;47.536;19.066;2023-04-15T01:06:00;99393.06;;;5.32;100.00
60583;BME280;46415;47.536;19.066;2023-04-15T01:09:05;99392.88;;;5.37;100.00
60583;BME280;46415;47.536;19.066;2023-04-15T01:12:11;99383.34;;;5.41;100.00
60583;BME280;46415;47.536;19.066;2023-04-15T01:15:15;99380.75;;;5.41;100.00
60583;BME280;46415;47.536;19.066;2023-04-15T01:18:18;99379.12;;;5.38;100.00
60583;BME280;46415;47.536;19.066;2023-04-15T01:21:22;99379.25;;;5.35;100.00
60583;BME280;46415;47.536;19.066;2023-04-15T01:24:26;99370.81;;;5.31;100.00
60583;BME280;46415;47.536;19.066;2023-04-15T01:27:29;99378.28;;;5.38;100.00
60583;BME280;46415;47.536;19.066;2023-04-15T01:30:33;99384.28;;;5.38;100.00
60583;BME280;46415;47.536;19.066;2023-04-15T01:33:37;99380.81;;;5.39;100.00
60583;BME280;46415;47.536;19.066;2023-04-15T01:36:40;99389.38;;;5.40;100.00
60583;BME280;46415;47.536;19.066;2023-04-15T01:39:43;99387.72;;;5.37;100.00
60583;BME280;46415;47.536;19.066;2023-04-15T01:42:46;99389.09;;;5.47;100.00
60583;BME280;46415;47.536;19.066;2023-04-15T01:45:50;99386.38;;;5.50;100.00
60583;BME280;46415;47.536;19.066;2023-04-15T01:48:53;99389.13;;;5.46;100.00
60583;BME280;46415;47.536;19.066;2023-04-15T01:51:55;99397.63;;;5.48;100.00
60583;BME280;46415;47.536;19.066;2023-04-15T01:54:58;99394.94;;;5.51;100.00
60583;BME280;46415;47.536;19.066;2023-04-15T01:58:02;99397.47;;;5.52;100.00
60583;BME280;46415;47.536;19.066;2023-04-15T02:01:05;99388.38;;;5.65;100.00
60583;BME280;46415;47.536;19.066;2023-04-15T02:04:08;99389.31;;;5.63;100.00
60583;BME280;46415;47.536;19.066;2023-04-15T02:07:17;99394.28;;;5.67;100.00
60583;BME280;46415;47.536;19.066;2023-04-15T02:10:21;99399.37;;;5.69;100.00
60583;BME280;46415;47.536;19.066;2023-04-15T02:13:24;99391.94;;;5.61;100.00
60583;BME280;46415;47.536;19.066;2023-04-15T02:16:27;99390.84;;;5.67;100.00
60583;BME280;46415;47.536;19.066;2023-04-15T02:19:29;99394.28;;;5.67;100.00
60583;BME280;46415;47.536;19.066;2023-04-15T02:22:33;99390.84;;;5.67;100.00
60583;BME280;46415;47.536;19.066;2023-04-15T02:25:36;99393.50;;;5.65;100.00
60583;BME280;46415;47.536;19.066;2023-04-15T02:28:41;99389.22;;;5.66;100.00
60583;BME280;46415;47.536;19.066;2023-04-15T02:31:49;99387.03;;;5.77;100.00
60583;BME280;46415;47.536;19.066;2023-04-15T02:34:52;99390.56;;;5.74;100.00
60583;BME280;46415;47.536;19.066;2023-04-15T02:37:55;99394.91;;;5.72;100.00
60583;BME280;46415;47.536;19.066;2023-04-15T02:40:58;99407.88;;;5.71;100.00
60583;BME280;46415;47.536;19.066;2023-04-15T02:44:02;99397.44;;;5.74;100.00
60583;BME280;46415;47.536;19.066;2023-04-15T02:47:05;99407.22;;;5.66;100.00
60583;BME280;46415;47.536;19.066;2023-04-15T02:50:10;99404.94;;;5.58;100.00
60583;BME280;46415;47.536;19.066;2023-04-15T02:53:14;99405.53;;;5.65;100.00
60583;BME280;46415;47.536;19.066;2023-04-15T02:56:17;99407.13;;;5.67;100.00
60583;BME280;46415;47.536;19.066;2023-04-15T02:59:21;99400.31;;;5.66;100.00
60583;BME280;46415;47.536;19.066;2023-04-15T03:02:24;99398.47;;;5.70;100.00
60583;BME280;46415;47.536;19.066;2023-04-15T03:05:27;99397.59;;;5.71;100.00
60583;BME280;46415;47.536;19.066;2023-04-15T03:08:30;99394.28;;;5.67;100.00
60583;BME280;46415;47.536;19.066;2023-04-15T03:11:34;99389.06;;;5.69;100.00
60583;BME280;46415;47.536;19.066;2023-04-15T03:14:38;99390.50;;;5.76;100.00
60583;BME280;46415;47.536;19.066;2023-04-15T03:17:41;99396.25;;;5.83;100.00
60583;BME280;46415;47.536;19.066;2023-04-15T03:20:44;99383.94;;;5.91;100.00
60583;BME280;46415;47.536;19.066;2023-04-15T03:23:47;99393.59;;;5.84;100.00
60583;BME280;46415;47.536;19.066;2023-04-15T03:26:50;99389.41;;;5.82;100.00
60583;BME280;46415;47.536;19.066;2023-04-15T03:29:53;99392.69;;;5.85;100.00
60583;BME280;46415;47.536;19.066;2023-04-15T03:32:57;99390.97;;;5.86;100.00
60583;BME280;46415;47.536;19.066;2023-04-15T03:36:00;99384.75;;;5.91;100.00
60583;BME280;46415;47.536;19.066;2023-04-15T03:39:03;99387.34;;;5.91;100.00
60583;BME280;46415;47.536;19.066;2023-04-15T03:42:06;99392.06;;;5.80;100.00
60583;BME280;46415;47.536;19.066;2023-04-15T03:45:09;99399.66;;;5.83;100.00
60583;BME280;46415;47.536;19.066;2023-04-15T03:48:12;99403.81;;;5.87;100.00
60583;BME280;46415;47.536;19.066;2023-04-15T03:51:19;99401.09;;;5.90;100.00
60583;BME280;46415;47.536;19.066;2023-04-15T03:54:22;99402.53;;;5.97;100.00
60583;BME280;46415;47.536;19.066;2023-04-15T03:57:25;99398.81;;;6.04;100.00
60583;BME280;46415;47.536;19.066;2023-04-15T04:00:28;99391.69;;;6.11;100.00
60583;BME280;46415;47.536;19.066;2023-04-15T04:03:31;99394.97;;;6.14;100.00
60583;BME280;46415;47.536;19.066;2023-04-15T04:06:33;99384.03;;;6.30;100.00
60583;BME280;46415;47.536;19.066;2023-04-15T04:09:36;99385.19;;;6.23;100.00
60583;BME280;46415;47.536;19.066;2023-04-15T04:12:41;99381.56;;;6.27;100.00
60583;BME280;46415;47.536;19.066;2023-04-15T04:15:44;99387.62;;;6.26;100.00
60583;BME280;46415;47.536;19.066;2023-04-15T04:18:47;99387.22;;;6.14;100.00
60583;BME280;46415;47.536;19.066;2023-04-15T04:21:51;99386.53;;;6.11;100.00
60583;BME280;46415;47.536;19.066;2023-04-15T04:24:53;99383.13;;;6.10;100.00
60583;BME280;46415;47.536;19.066;2023-04-15T04:27:56;99384.75;;;6.13;100.00
60583;BME280;46415;47.536;19.066;2023-04-15T04:30:59;99382.75;;;6.20;100.00
60583;BME280;46415;47.536;19.066;2023-04-15T04:34:02;99388.41;;;6.28;100.00
60583;BME280;46415;47.536;19.066;2023-04-15T04:37:05;99381.41;;;6.31;100.00
60583;BME280;46415;47.536;19.066;2023-04-15T04:40:08;99390.25;;;6.44;100.00
60583;BME280;46415;47.536;19.066;2023-04-15T04:43:12;99390.63;;;6.55;100.00
60583;BME280;46415;47.536;19.066;2023-04-15T04:46:14;99390.59;;;6.57;100.00
60583;BME280;46415;47.536;19.066;2023-04-15T04:49:17;99393.53;;;6.68;100.00
60583;BME280;46415;47.536;19.066;2023-04-15T04:52:20;99388.41;;;6.87;100.00
60583;BME280;46415;47.536;19.066;2023-04-15T04:55:22;99385.22;;;7.01;100.00
60583;BME280;46415;47.536;19.066;2023-04-15T04:58:25;99385.16;;;7.21;100.00
60583;BME280;46415;47.536;19.066;2023-04-15T05:01:28;99393.88;;;7.37;100.00
60583;BME280;46415;47.536;19.066;2023-04-15T05:04:32;99385.41;;;7.52;100.00
60583;BME280;46415;47.536;19.066;2023-04-15T05:07:34;99383.28;;;7.96;100.00
60583;BME280;46415;47.536;19.066;2023-04-15T05:10:37;99383.69;;;8.40;100.00
60583;BME280;46415;47.536;19.066;2023-04-15T05:13:40;99388.53;;;8.64;100.00
60583;BME280;46415;47.536;19.066;2023-04-15T05:16:43;99391.31;;;8.76;100.00
60583;BME280;46415;47.536;19.066;2023-04-15T05:19:45;99391.09;;;8.81;100.00
60583;BME280;46415;47.536;19.066;2023-04-15T05:22:48;99382.19;;;9.02;100.00
60583;BME280;46415;47.536;19.066;2023-04-15T05:25:51;99389.81;;;9.52;100.00
60583;BME280;46415;47.536;19.066;2023-04-15T05:28:54;99390.22;;;9.76;100.00
60583;BME280;46415;47.536;19.066;2023-04-15T05:31:56;99393.72;;;9.75;100.00
60583;BME280;46415;47.536;19.066;2023-04-15T05:34:59;99391.72;;;9.49;100.00
60583;BME280;46415;47.536;19.066;2023-04-15T05:38:02;99392.06;;;9.42;100.00
60583;BME280;46415;47.536;19.066;2023-04-15T05:41:05;99394.31;;;9.49;100.00
60583;BME280;46415;47.536;19.066;2023-04-15T05:44:08;99391.81;;;9.31;100.00
60583;BME280;46415;47.536;19.066;2023-04-15T05:47:11;99393.16;;;9.23;100.00
60583;BME280;46415;47.536;19.066;2023-04-15T05:50:14;99393.13;;;9.07;100.00
60583;BME280;46415;47.536;19.066;2023-04-15T05:53:17;99396.38;;;8.95;100.00
60583;BME280;46415;47.536;19.066;2023-04-15T05:56:20;99404.09;;;8.79;100.00
60583;BME280;46415;47.536;19.066;2023-04-15T05:59:23;99399.53;;;9.00;100.00
60583;BME280;46415;47.536;19.066;2023-04-15T06:02:26;99410.00;;;9.14;100.00
60583;BME280;46415;47.536;19.066;2023-04-15T06:05:29;99404.91;;;9.13;100.00
60583;BME280;46415;47.536;19.066;2023-04-15T06:08:32;99410.62;;;9.35;100.00
60583;BME280;46415;47.536;19.066;2023-04-15T06:11:35;99420.38;;;9.14;100.00
60583;BME280;46415;47.536;19.066;2023-04-15T06:14:38;99412.78;;;9.11;100.00
60583;BME280;46415;47.536;19.066;2023-04-15T06:17:42;99416.59;;;9.04;100.00
60583;BME280;46415;47.536;19.066;2023-04-15T06:20:45;99426.38;;;9.30;100.00
60583;BME280;46415;47.536;19.066;2023-04-15T06:23:48;99430.69;;;9.47;100.00
60583;BME280;46415;47.536;19.066;2023-04-15T06:26:50;99430.25;;;9.70;100.00
60583;BME280;46415;47.536;19.066;2023-04-15T06:29:53;99436.50;;;9.98;100.00
60583;BME280;46415;47.536;19.066;2023-04-15T06:32:56;99430.47;;;9.97;100.00
60583;BME280;46415;47.536;19.066;2023-04-15T06:35:59;99435.38;;;10.02;100.00
60583;BME280;46415;47.536;19.066;2023-04-15T06:39:02;99436.50;;;9.98;100.00
60583;BME280;46415;47.536;19.066;2023-04-15T06:42:05;99437.69;;;10.38;100.00
60583;BME280;46415;47.536;19.066;2023-04-15T06:45:08;99440.53;;;10.33;100.00
60583;BME280;46415;47.536;19.066;2023-04-15T06:48:11;99450.78;;;10.20;100.00
60583;BME280;46415;47.536;19.066;2023-04-15T06:51:14;99445.50;;;10.22;100.00
60583;BME280;46415;47.536;19.066;2023-04-15T06:54:17;99452.19;;;10.10;100.00
60583;BME280;46415;47.536;19.066;2023-04-15T06:57:19;99450.78;;;10.20;100.00
60583;BME280;46415;47.536;19.066;2023-04-15T07:00:22;99457.19;;;10.13;100.00
60583;BME280;46415;47.536;19.066;2023-04-15T07:03:25;99449.81;;;10.37;100.00
60583;BME280;46415;47.536;19.066;2023-04-15T07:06:28;99447.91;;;10.25;100.00
60583;BME280;46415;47.536;19.066;2023-04-15T07:09:31;99450.66;;;10.38;100.00
60583;BME280;46415;47.536;19.066;2023-04-15T07:12:36;99453.28;;;10.22;100.00
60583;BME280;46415;47.536;19.066;2023-04-15T07:15:38;99456.72;;;10.22;100.00
60583;BME280;46415;47.536;19.066;2023-04-15T07:18:41;99456.31;;;10.44;100.00
60583;BME280;46415;47.536;19.066;2023-04-15T07:21:45;99458.31;;;10.69;100.00
60583;BME280;46415;47.536;19.066;2023-04-15T07:24:49;99457.72;;;10.50;100.00
60583;BME280;46415;47.536;19.066;2023-04-15T07:27:52;99460.09;;;10.39;100.00
60583;BME280;46415;47.536;19.066;2023-04-15T07:30:54;99451.47;;;10.38;100.00
60583;BME280;46415;47.536;19.066;2023-04-15T07:33:58;99458.31;;;10.69;100.00
60583;BME280;46415;47.536;19.066;2023-04-15T07:37:01;99459.56;;;10.78;100.00
60583;BME280;46415;47.536;19.066;2023-04-15T07:40:05;99454.56;;;10.89;100.00
60583;BME280;46415;47.536;19.066;2023-04-15T07:43:08;99460.94;;;10.97;100.00
60583;BME280;46415;47.536;19.066;2023-04-15T07:46:12;99459.87;;;11.01;100.00
60583;BME280;46415;47.536;19.066;2023-04-15T07:49:15;99464.34;;;10.70;100.00
60583;BME280;46415;47.536;19.066;2023-04-15T07:52:18;99461.88;;;11.11;100.00
60583;BME280;46415;47.536;19.066;2023-04-15T07:55:21;99467.34;;;11.20;100.00
60583;BME280;46415;47.536;19.066;2023-04-15T07:58:24;99455.22;;;11.49;98.33
60583;BME280;46415;47.536;19.066;2023-04-15T08:01:30;99458.53;;;11.51;95.24
60583;BME280;46415;47.536;19.066;2023-04-15T08:04:33;99459.25;;;11.67;95.55
60583;BME280;46415;47.536;19.066;2023-04-15T08:07:36;99464.34;;;11.69;93.35
60583;BME280;46415;47.536;19.066;2023-04-15T08:10:40;99462.25;;;11.61;93.55
60583;BME280;46415;47.536;19.066;2023-04-15T08:13:42;99462.88;;;11.79;94.33
60583;BME280;46415;47.536;19.066;2023-04-15T08:16:45;99464.50;;;12.21;96.29
60583;BME280;46415;47.536;19.066;2023-04-15T08:19:48;99463.22;;;12.53;91.58
60583;BME280;46415;47.536;19.066;2023-04-15T08:22:51;99458.66;;;12.69;89.83
60583;BME280;46415;47.536;19.066;2023-04-15T08:25:54;99462.34;;;12.92;89.24
60583;BME280;46415;47.536;19.066;2023-04-15T08:28:57;99465.34;;;13.12;86.28
60583;BME280;46415;47.536;19.066;2023-04-15T08:32:00;99464.66;;;13.22;83.59
60583;BME280;46415;47.536;19.066;2023-04-15T08:35:03;99474.91;;;13.11;83.69
60583;BME280;46415;47.536;19.066;2023-04-15T08:38:06;99471.41;;;12.87;83.91
60583;BME280;46415;47.536;19.066;2023-04-15T08:41:24;99465.16;;;13.15;82.04
60583;BME280;46415;47.536;19.066;2023-04-15T08:44:29;99470.38;;;13.15;82.12
60583;BME280;46415;47.536;19.066;2023-04-15T08:47:36;99478.47;;;13.35;82.16
60583;BME280;46415;47.536;19.066;2023-04-15T08:50:40;99474.44;;;13.31;80.70
60583;BME280;46415;47.536;19.066;2023-04-15T08:53:44;99473.56;;;13.56;79.16
60583;BME280;46415;47.536;19.066;2023-04-15T08:56:49;99484.13;;;13.29;79.71
60583;BME280;46415;47.536;19.066;2023-04-15T08:59:54;99481.22;;;13.34;79.96
60583;BME280;46415;47.536;19.066;2023-04-15T09:02:58;99476.94;;;13.82;79.74
60583;BME280;46415;47.536;19.066;2023-04-15T09:06:03;99481.53;;;14.26;80.30
60583;BME280;46415;47.536;19.066;2023-04-15T09:09:06;99484.44;;;14.10;74.30
60583;BME280;46415;47.536;19.066;2023-04-15T09:12:10;99487.28;;;13.71;76.53
60583;BME280;46415;47.536;19.066;2023-04-15T09:15:13;99485.44;;;13.97;75.15
60583;BME280;46415;47.536;19.066;2023-04-15T09:18:32;99479.62;;;14.41;73.02
60583;BME280;46415;47.536;19.066;2023-04-15T09:21:35;99486.59;;;14.64;70.38
60583;BME280;46415;47.536;19.066;2023-04-15T09:24:39;99486.81;;;14.61;72.41
60583;BME280;46415;47.536;19.066;2023-04-15T09:27:50;99488.13;;;13.95;71.77
60583;BME280;46415;47.536;19.066;2023-04-15T09:30:57;99485.97;;;13.89;73.83
60583;BME280;46415;47.536;19.066;2023-04-15T09:34:00;99487.41;;;13.69;72.77
60583;BME280;46415;47.536;19.066;2023-04-15T09:37:03;99482.50;;;13.65;74.72
60583;BME280;46415;47.536;19.066;2023-04-15T09:40:07;99480.47;;;13.44;76.79
60583;BME280;46415;47.536;19.066;2023-04-15T09:43:11;99478.06;;;13.41;75.15
60583;BME280;46415;47.536;19.066;2023-04-15T09:46:14;99486.31;;;13.84;71.77
60583;BME280;46415;47.536;19.066;2023-04-15T09:49:18;99481.72;;;13.88;72.72
60583;BME280;46415;47.536;19.066;2023-04-15T09:52:22;99474.06;;;13.61;76.08
60583;BME280;46415;47.536;19.066;2023-04-15T09:55:25;99486.09;;;13.26;78.08
60583;BME280;46415;47.536;19.066;2023-04-15T09:58:30;99479.88;;;13.65;79.31
60583;BME280;46415;47.536;19.066;2023-04-15T10:01:33;99483.41;;;13.76;77.13
60583;BME280;46415;47.536;19.066;2023-04-15T10:04:39;99491.50;;;13.97;76.58
60583;BME280;46415;47.536;19.066;2023-04-15T10:07:43;99488.25;;;13.70;74.67
60583;BME280;46415;47.536;19.066;2023-04-15T10:10:47;99493.78;;;13.89;75.02
60583;BME280;46415;47.536;19.066;2023-04-15T10:13:50;99491.97;;;13.78;73.12
60583;BME280;46415;47.536;19.066;2023-04-15T10:16:55;99500.31;;;13.71;73.98
60583;BME280;46415;47.536;19.066;2023-04-15T10:20:02;99497.56;;;13.36;77.11
60583;BME280;46415;47.536;19.066;2023-04-15T10:23:07;99503.47;;;12.87;77.41
60583;BME280;46415;47.536;19.066;2023-04-15T10:26:14;99492.34;;;12.98;83.36
60583;BME280;46415;47.536;19.066;2023-04-15T10:29:19;99498.53;;;13.71;78.89
60583;BME280;46415;47.536;19.066;2023-04-15T10:32:23;99491.59;;;13.96;77.58
60583;BME280;46415;47.536;19.066;2023-04-15T10:35:28;99496.84;;;13.83;76.22
60583;BME280;46415;47.536;19.066;2023-04-15T10:38:40;99499.94;;;13.64;79.16
60583;BME280;46415;47.536;19.066;2023-04-15T10:41:44;99509.97;;;13.32;80.23
60583;BME280;46415;47.536;19.066;2023-04-15T10:44:51;99509.44;;;13.89;79.44
60583;BME280;46415;47.536;19.066;2023-04-15T10:48:01;99504.66;;;13.83;76.79
60583;BME280;46415;47.536;19.066;2023-04-15T10:51:05;99511.41;;;13.98;75.57
60583;BME280;46415;47.536;19.066;2023-04-15T10:57:22;99521.37;;;14.17;71.50
60583;BME280;46415;47.536;19.066;2023-04-15T11:00:28;99514.41;;;13.81;73.75
60583;BME280;46415;47.536;19.066;2023-04-15T11:03:39;99522.25;;;13.56;77.05
60583;BME280;46415;47.536;19.066;2023-04-15T11:06:43;99523.78;;;12.95;83.96
60583;BME280;46415;47.536;19.066;2023-04-15T11:09:46;99527.44;;;12.80;88.40
60583;BME280;46415;47.536;19.066;2023-04-15T11:13:04;99530.81;;;13.45;85.65
60583;BME280;46415;47.536;19.066;2023-04-15T11:16:06;99537.44;;;13.11;86.49
60583;BME280;46415;47.536;19.066;2023-04-15T11:19:10;99535.06;;;13.08;87.25
60583;BME280;46415;47.536;19.066;2023-04-15T11:22:13;99530.97;;;12.79;88.90
60583;BME280;46415;47.536;19.066;2023-04-15T11:25:27;99528.37;;;12.91;93.30
60583;BME280;46415;47.536;19.066;2023-04-15T11:28:31;99532.19;;;13.25;89.83
60583;BME280;46415;47.536;19.066;2023-04-15T11:31:34;99529.56;;;13.38;87.77
60583;BME280;46415;47.536;19.066;2023-04-15T11:34:37;99527.44;;;13.81;83.93
60583;BME280;46415;47.536;19.066;2023-04-15T11:37:40;99523.22;;;13.91;77.43
60583;BME280;46415;47.536;19.066;2023-04-15T11:40:44;99527.47;;;14.41;75.60
60583;BME280;46415;47.536;19.066;2023-04-15T11:43:50;99528.78;;;14.70;73.41
60583;BME280;46415;47.536;19.066;2023-04-15T11:46:54;99539.28;;;14.93;70.17
60583;BME280;46415;47.536;19.066;2023-04-15T11:49:57;99536.19;;;14.53;69.82
60583;BME280;46415;47.536;19.066;2023-04-15T11:53:01;99535.25;;;14.17;74.48
60583;BME280;46415;47.536;19.066;2023-04-15T11:56:06;99537.47;;;14.35;73.50
60583;BME280;46415;47.536;19.066;2023-04-15T11:59:09;99533.06;;;14.48;71.34
60583;BME280;46415;47.536;19.066;2023-04-15T12:02:12;99538.16;;;14.13;74.03
60583;BME280;46415;47.536;19.066;2023-04-15T12:05:16;99535.37;;;13.67;75.37
60583;BME280;46415;47.536;19.066;2023-04-15T12:08:19;99541.00;;;13.73;79.27
60583;BME280;46415;47.536;19.066;2023-04-15T12:14:31;99542.44;;;14.50;74.38
60583;BME280;46415;47.536;19.066;2023-04-15T12:17:35;99551.41;;;14.94;72.87
60583;BME280;46415;47.536;19.066;2023-04-15T12:20:53;99545.94;;;15.54;69.54
60583;BME280;46415;47.536;19.066;2023-04-15T12:23:56;99552.78;;;15.33;68.20
60583;BME280;46415;47.536;19.066;2023-04-15T12:27:07;99540.03;;;15.06;68.28
60583;BME280;46415;47.536;19.066;2023-04-15T12:30:10;99546.72;;;14.75;70.70
60583;BME280;46415;47.536;19.066;2023-04-15T12:33:13;99544.06;;;14.64;72.74
60583;BME280;46415;47.536;19.066;2023-04-15T12:36:16;99551.94;;;14.75;72.34
60583;BME280;46415;47.536;19.066;2023-04-15T12:39:23;99551.25;;;14.37;71.27
60583;BME280;46415;47.536;19.066;2023-04-15T12:42:32;99553.88;;;14.00;74.14
60583;BME280;46415;47.536;19.066;2023-04-15T12:45:34;99544.50;;;13.98;73.83
60583;BME280;46415;47.536;19.066;2023-04-15T12:48:38;99547.41;;;14.06;77.95
60583;BME280;46415;47.536;19.066;2023-04-15T12:51:41;99548.00;;;13.73;76.63
60583;BME280;46415;47.536;19.066;2023-04-15T12:54:44;99553.50;;;13.81;77.06
60583;BME280;46415;47.536;19.066;2023-04-15T12:57:47;99563.16;;;14.04;74.77
60583;BME280;46415;47.536;19.066;2023-04-15T13:00:50;99555.03;;;13.96;76.52
60583;BME280;46415;47.536;19.066;2023-04-15T13:03:53;99568.50;;;14.39;76.09
60583;BME280;46415;47.536;19.066;2023-04-15T13:06:56;99562.03;;;14.32;74.31
60583;BME280;46415;47.536;19.066;2023-04-15T13:09:58;99555.25;;;14.29;74.30
60583;BME280;46415;47.536;19.066;2023-04-15T13:13:03;99564.22;;;14.25;74.53
60583;BME280;46415;47.536;19.066;2023-04-15T13:16:06;99569.69;;;14.22;72.23
60583;BME280;46415;47.536;19.066;2023-04-15T13:19:09;99570.78;;;14.31;72.68
60583;BME280;46415;47.536;19.066;2023-04-15T13:22:12;99569.25;;;14.28;75.01
60583;BME280;46415;47.536;19.066;2023-04-15T13:25:16;99567.50;;;14.16;76.17
60583;BME280;46415;47.536;19.066;2023-04-15T13:28:19;99567.56;;;14.27;76.01
60583;BME280;46415;47.536;19.066;2023-04-15T13:31:22;99571.53;;;14.33;73.88
60583;BME280;46415;47.536;19.066;2023-04-15T13:34:25;99574.47;;;14.41;72.25
60583;BME280;46415;47.536;19.066;2023-04-15T13:37:29;99571.88;;;14.76;73.12
60583;BME280;46415;47.536;19.066;2023-04-15T13:40:32;99577.47;;;14.72;73.52
60583;BME280;46415;47.536;19.066;2023-04-15T13:43:34;99578.88;;;14.15;74.06
60583;BME280;46415;47.536;19.066;2023-04-15T13:46:38;99574.16;;;13.59;76.44
60583;BME280;46415;47.536;19.066;2023-04-15T13:49:42;99585.03;;;13.27;79.15
60583;BME280;46415;47.536;19.066;2023-04-15T13:52:45;99589.66;;;12.70;82.36
60583;BME280;46415;47.536;19.066;2023-04-15T13:55:48;99582.28;;;12.77;83.82
60583;BME280;46415;47.536;19.066;2023-04-15T13:58:51;99589.94;;;12.92;81.81
60583;BME280;46415;47.536;19.066;2023-04-15T14:01:54;99590.97;;;13.17;79.98
60583;BME280;46415;47.536;19.066;2023-04-15T14:04:58;99594.41;;;13.42;79.78
60583;BME280;46415;47.536;19.066;2023-04-15T14:08:00;99586.06;;;13.37;80.07
60583;BME280;46415;47.536;19.066;2023-04-15T14:11:03;99590.53;;;13.23;80.42
60583;BME280;46415;47.536;19.066;2023-04-15T14:14:06;99594.94;;;12.95;83.29
60583;BME280;46415;47.536;19.066;2023-04-15T14:17:09;99598.13;;;12.74;84.17
60583;BME280;46415;47.536;19.066;2023-04-15T14:20:12;99605.69;;;12.64;84.57
60583;BME280;46415;47.536;19.066;2023-04-15T14:23:18;99602.84;;;12.94;85.65
60583;BME280;46415;47.536;19.066;2023-04-15T14:26:21;99600.69;;;13.00;84.27
60583;BME280;46415;47.536;19.066;2023-04-15T14:29:24;99605.97;;;12.99;83.54
60583;BME280;46415;47.536;19.066;2023-04-15T14:32:27;99610.78;;;13.05;83.97
60583;BME280;46415;47.536;19.066;2023-04-15T14:35:30;99607.97;;;12.95;82.79
60583;BME280;46415;47.536;19.066;2023-04-15T14:38:36;99612.22;;;12.84;82.75
60583;BME280;46415;47.536;19.066;2023-04-15T14:41:42;99613.88;;;12.85;85.48
60583;BME280;46415;47.536;19.066;2023-04-15T14:44:44;99619.50;;;12.79;82.41
60583;BME280;46415;47.536;19.066;2023-04-15T14:47:47;99615.59;;;12.72;85.59
60583;BME280;46415;47.536;19.066;2023-04-15T14:50:51;99621.91;;;12.55;87.52
60583;BME280;46415;47.536;19.066;2023-04-15T14:53:54;99626.28;;;12.40;89.34
60583;BME280;46415;47.536;19.066;2023-04-15T14:56:57;99620.69;;;12.46;89.85
60583;BME280;46415;47.536;19.066;2023-04-15T15:00:00;99625.09;;;12.73;90.47
60583;BME280;46415;47.536;19.066;2023-04-15T15:03:03;99625.22;;;12.84;88.82
60583;BME280;46415;47.536;19.066;2023-04-15T15:06:14;99619.87;;;12.73;90.34
60583;BME280;46415;47.536;19.066;2023-04-15T15:09:17;99625.50;;;13.06;88.52
60583;BME280;46415;47.536;19.066;2023-04-15T15:12:22;99628.25;;;13.17;86.51
60583;BME280;46415;47.536;19.066;2023-04-15T15:15:25;99632.06;;;13.12;87.28
60583;BME280;46415;47.536;19.066;2023-04-15T15:18:30;99623.44;;;12.57;88.52
60583;BME280;46415;47.536;19.066;2023-04-15T15:21:33;99635.59;;;12.44;89.69
60583;BME280;46415;47.536;19.066;2023-04-15T15:24:36;99635.22;;;12.36;90.55
60583;BME280;46415;47.536;19.066;2023-04-15T15:27:39;99648.00;;;12.26;89.29
60583;BME280;46415;47.536;19.066;2023-04-15T15:30:42;99652.53;;;12.23;88.74
60583;BME280;46415;47.536;19.066;2023-04-15T15:33:45;99647.16;;;12.12;89.90
60583;BME280;46415;47.536;19.066;2023-04-15T15:36:48;99658.22;;;12.01;89.09
60583;BME280;46415;47.536;19.066;2023-04-15T15:39:51;99657.00;;;11.93;89.37
60583;BME280;46415;47.536;19.066;2023-04-15T15:42:54;99660.44;;;12.07;86.64
60583;BME280;46415;47.536;19.066;2023-04-15T15:45:57;99663.59;;;12.12;86.64
60583;BME280;46415;47.536;19.066;2023-04-15T15:49:01;99678.75;;;12.06;87.09
60583;BME280;46415;47.536;19.066;2023-04-15T15:52:05;99675.03;;;11.96;88.02
60583;BME280;46415;47.536;19.066;2023-04-15T15:55:08;99681.53;;;12.03;90.24
60583;BME280;46415;47.536;19.066;2023-04-15T15:58:11;99675.31;;;11.91;90.48
60583;BME280;46415;47.536;19.066;2023-04-15T16:01:13;99680.78;;;11.86;91.77
60583;BME280;46415;47.536;19.066;2023-04-15T16:04:16;99683.84;;;11.79;93.66
60583;BME280;46415;47.536;19.066;2023-04-15T16:07:19;99688.94;;;11.80;94.74